Аэропорт: Курумоч. Самара

ICAO: UWWW

METAR:
2019/05/26 14:00
UWWW 261400Z 15005MPS 9999 FEW033 22/05 Q1011 R15/CLRD60 NOSIG RMK QFE747/0996
METAR:
2019/05/26 12:21
TAF UWWW 261059Z 2612/2712 16007G13MPS 9999 SCT030 TX25/2709Z TN14/2703Z 
      TEMPO 2612/2705 18010G16MPS 3100 -TSRA BKN013CB 
     FM270600 20009G14MPS 5000 -RA BKN020 
      TEMPO 2706/2712 VRB16MPS 2100 -TSRA SQ BKN011CB